createdAt,value
2022-08-14T00:02:01.448Z,99030.44
2022-08-14T00:04:35.862Z,99027.09
2022-08-14T00:07:14.055Z,99024.69
2022-08-14T00:09:55.614Z,99018.84
2022-08-14T00:12:47.905Z,99022.38
2022-08-14T00:15:21.779Z,99016.63
2022-08-14T00:17:53.372Z,99017.56
2022-08-14T00:20:31.181Z,99017.56
2022-08-14T00:23:17.406Z,99012.56
2022-08-14T00:25:59.102Z,99014.22
2022-08-14T00:28:36.746Z,99008.31
2022-08-14T00:31:07.796Z,99011.63
2022-08-14T00:33:39.283Z,99008.22
2022-08-14T00:36:37.319Z,99012.56
2022-08-14T00:39:18.122Z,99014.44
2022-08-14T00:41:47.425Z,99004.13
2022-08-14T00:44:21.560Z,99007.56
2022-08-14T00:47:00.888Z,99015.34
2022-08-14T00:49:30.233Z,99007.00
2022-08-14T00:52:00.408Z,99012.28
2022-08-14T00:54:29.831Z,99007.19
2022-08-14T00:56:58.444Z,99005.53
2022-08-14T00:59:28.606Z,99011.31
2022-08-14T01:01:59.134Z,99003.63
2022-08-14T01:04:38.102Z,99005.38
2022-08-14T01:07:20.526Z,99006.41
2022-08-14T01:09:52.763Z,99005.94
2022-08-14T01:12:26.318Z,98998.56
2022-08-14T01:14:58.233Z,99000.72
2022-08-14T01:17:50.209Z,99005.81
2022-08-14T01:20:39.422Z,98990.53
2022-08-14T01:23:16.349Z,99001.09
2022-08-14T01:25:47.802Z,98999.44
2022-08-14T01:28:47.067Z,98998.78
2022-08-14T01:31:05.994Z,99002.09
2022-08-14T01:33:52.190Z,98997.53
2022-08-14T01:36:23.723Z,99006.50
2022-08-14T01:38:55.339Z,99006.75
2022-08-14T01:41:29.943Z,99007.78
2022-08-14T01:44:01.624Z,99003.72
2022-08-14T01:46:33.343Z,99004.72
2022-08-14T01:49:07.547Z,98997.28
2022-08-14T01:51:36.456Z,99001.59
2022-08-14T01:54:14.261Z,98994.84
2022-08-14T01:56:44.801Z,99001.19
2022-08-14T01:59:21.787Z,98993.28
2022-08-14T02:01:58.677Z,99002.44
2022-08-14T02:04:40.762Z,99002.31
2022-08-14T02:07:34.683Z,99001.38
2022-08-14T02:10:13.271Z,99005.75
2022-08-14T02:12:54.182Z,98997.31
2022-08-14T02:15:25.790Z,98991.53
2022-08-14T02:17:54.387Z,99009.09
2022-08-14T02:20:23.513Z,99011.63
2022-08-14T02:22:54.964Z,99014.25
2022-08-14T02:25:24.700Z,99006.75
2022-08-14T02:28:22.350Z,99010.22
2022-08-14T02:30:46.104Z,99006.00
2022-08-14T02:33:14.239Z,99004.25
2022-08-14T02:35:43.390Z,99016.16
2022-08-14T02:38:30.585Z,99010.22
2022-08-14T02:41:01.156Z,99018.59
2022-08-14T02:43:37.423Z,99017.75
2022-08-14T02:46:20.444Z,99011.88
2022-08-14T02:49:04.825Z,99012.66
2022-08-14T02:51:34.898Z,99015.19
2022-08-14T02:54:06.797Z,99012.59
2022-08-14T02:57:39.197Z,99016.91
2022-08-14T02:59:29.627Z,99019.63
2022-08-14T03:02:03.328Z,99025.47
2022-08-14T03:04:32.960Z,99024.94
2022-08-14T03:07:07.215Z,99023.31
2022-08-14T03:09:42.164Z,99036.63
2022-08-14T03:12:32.212Z,99035.06
2022-08-14T03:15:03.743Z,99038.47
2022-08-14T03:17:56.290Z,99041.88
2022-08-14T03:20:22.636Z,99034.41
2022-08-14T03:22:53.619Z,99042.84
2022-08-14T03:25:23.110Z,99029.47
2022-08-14T03:27:58.030Z,99026.31
2022-08-14T03:30:39.777Z,99033.09
2022-08-14T03:33:12.162Z,99030.66
2022-08-14T03:35:59.794Z,99023.09
2022-08-14T03:39:10.617Z,99003.22
2022-08-14T03:41:23.196Z,99023.53
2022-08-14T03:43:57.757Z,99028.53
2022-08-14T03:46:51.885Z,99025.06
2022-08-14T03:49:24.324Z,99008.19
2022-08-14T03:51:57.685Z,99022.22
2022-08-14T03:54:26.316Z,99019.69
2022-08-14T03:56:54.996Z,99032.38
2022-08-14T03:59:24.429Z,99020.56
2022-08-14T04:02:01.379Z,99028.13
2022-08-14T04:04:30.818Z,99032.34
2022-08-14T04:07:00.396Z,99037.44
2022-08-14T04:09:29.323Z,99035.69
2022-08-14T04:11:58.307Z,99039.94
2022-08-14T04:14:29.093Z,99041.59
2022-08-14T04:16:57.528Z,99035.69
2022-08-14T04:19:28.051Z,99030.25
2022-08-14T04:22:03.611Z,99032.81
2022-08-14T04:24:39.219Z,99037.81
2022-08-14T04:27:09.967Z,99042.91
2022-08-14T04:29:42.709Z,99037.75
2022-08-14T04:33:01.178Z,99038.50
2022-08-14T04:35:07.436Z,99035.94
2022-08-14T04:37:55.641Z,99035.81
2022-08-14T04:40:55.486Z,99037.56
2022-08-14T04:43:40.058Z,99034.91
2022-08-14T04:46:54.831Z,99039.13
2022-08-14T04:49:00.545Z,99038.97
2022-08-14T04:51:30.139Z,99044.00
2022-08-14T04:54:05.881Z,99045.66
2022-08-14T04:56:34.798Z,99046.38
2022-08-14T04:59:09.983Z,99043.72
2022-08-14T05:01:45.208Z,99036.84
2022-08-14T05:04:20.097Z,99043.63
2022-08-14T05:06:49.836Z,99039.53
2022-08-14T05:09:22.266Z,99047.13
2022-08-14T05:11:51.496Z,99035.13
2022-08-14T05:14:43.383Z,99034.50
2022-08-14T05:17:11.946Z,99034.91
2022-08-14T05:19:44.571Z,99042.56
2022-08-14T05:22:27.989Z,99040.00
2022-08-14T05:24:55.991Z,99045.03
2022-08-14T05:27:24.273Z,99036.66
2022-08-14T05:29:56.869Z,99033.59
2022-08-14T05:32:28.135Z,99033.59
2022-08-14T05:34:59.093Z,99029.09
2022-08-14T05:37:29.672Z,99023.78
2022-08-14T05:40:02.116Z,99023.44
2022-08-14T05:42:32.297Z,99021.38
2022-08-14T05:45:17.111Z,99016.03
2022-08-14T05:47:46.410Z,99007.50
2022-08-14T05:50:19.894Z,99030.84
2022-08-14T05:52:50.904Z,99024.00
2022-08-14T05:55:22.014Z,99030.53
2022-08-14T05:57:53.855Z,99026.97
2022-08-14T06:00:29.925Z,99030.06
2022-08-14T06:03:06.821Z,99026.34
2022-08-14T06:05:38.652Z,99038.84
2022-08-14T06:08:08.858Z,99043.84
2022-08-14T06:10:57.141Z,99032.06
2022-08-14T06:13:31.742Z,99036.50
2022-08-14T06:16:12.858Z,99032.44
2022-08-14T06:18:42.186Z,99031.75
2022-08-14T06:21:13.585Z,99020.78
2022-08-14T06:23:41.976Z,99018.22
2022-08-14T06:26:11.116Z,99018.88
2022-08-14T06:28:39.057Z,99009.97
2022-08-14T06:31:11.204Z,99007.81
2022-08-14T06:35:02.717Z,99011.69
2022-08-14T06:36:29.422Z,99002.88
2022-08-14T06:38:57.553Z,98997.59
2022-08-14T06:41:44.048Z,99003.34
2022-08-14T06:44:13.368Z,99006.06
2022-08-14T06:46:41.754Z,99006.78
2022-08-14T06:49:17.314Z,98999.91
2022-08-14T06:51:47.082Z,99001.38
2022-08-14T06:54:18.290Z,98998.00
2022-08-14T06:56:54.349Z,99010.75
2022-08-14T06:59:25.015Z,99005.63
2022-08-14T07:02:13.638Z,99003.94
2022-08-14T07:05:05.564Z,98985.47
2022-08-14T07:07:40.233Z,99004.56
2022-08-14T07:10:17.062Z,99002.13
2022-08-14T07:12:56.652Z,99004.72
2022-08-14T07:15:33.614Z,99000.31
2022-08-14T07:18:03.551Z,99000.22
2022-08-14T07:20:32.224Z,99000.13
2022-08-14T07:23:08.070Z,99000.91
2022-08-14T07:25:40.116Z,98997.38
2022-08-14T07:28:13.011Z,98987.06
2022-08-14T07:30:50.874Z,98987.41
2022-08-14T07:33:24.556Z,98981.28
2022-08-14T07:35:58.286Z,98992.06
2022-08-14T07:38:35.879Z,98980.97
2022-08-14T07:41:11.638Z,98990.00
2022-08-14T07:43:42.795Z,98972.28
2022-08-14T07:46:12.295Z,98994.63
2022-08-14T07:48:43.452Z,98972.06
2022-08-14T07:51:11.548Z,98992.78
2022-08-14T07:53:41.424Z,98985.78
2022-08-14T07:56:36.780Z,98981.28
2022-08-14T07:58:59.999Z,98980.22
2022-08-14T08:01:30.868Z,98979.16
2022-08-14T08:04:01.181Z,98983.31
2022-08-14T08:06:30.527Z,98965.69
2022-08-14T08:09:03.648Z,98974.47
2022-08-14T08:11:37.450Z,98978.53
2022-08-14T08:14:10.706Z,98976.72
2022-08-14T08:16:47.330Z,98981.78
2022-08-14T08:19:19.351Z,98964.03
2022-08-14T08:21:47.980Z,98972.94
2022-08-14T08:24:19.885Z,98976.22
2022-08-14T08:26:50.278Z,98965.28
2022-08-14T08:29:28.267Z,98978.44
2022-08-14T08:32:01.903Z,98976.66
2022-08-14T08:34:45.326Z,98973.22
2022-08-14T08:37:14.550Z,98969.66
2022-08-14T08:40:03.201Z,98972.06
2022-08-14T08:42:38.469Z,98965.44
2022-08-14T08:45:12.166Z,98970.06
2022-08-14T08:47:41.156Z,98968.34
2022-08-14T08:50:31.769Z,98964.72
2022-08-14T08:53:01.897Z,98966.22
2022-08-14T08:55:34.200Z,98966.88
2022-08-14T08:58:05.523Z,98964.97
2022-08-14T09:00:43.243Z,98968.19
2022-08-14T09:03:12.861Z,98966.34
2022-08-14T09:05:56.215Z,98959.44
2022-08-14T09:08:31.832Z,98967.88
2022-08-14T09:11:19.929Z,98965.16
2022-08-14T09:13:51.485Z,98958.19
2022-08-14T09:16:22.097Z,98960.63
2022-08-14T09:18:53.437Z,98957.94
2022-08-14T09:21:24.431Z,98942.34
2022-08-14T09:24:28.314Z,98944.63
2022-08-14T09:26:49.259Z,98947.03
2022-08-14T09:29:19.997Z,98935.06
2022-08-14T09:31:57.676Z,98952.84
2022-08-14T09:34:47.484Z,98940.81
2022-08-14T09:37:45.659Z,98941.38
2022-08-14T09:40:26.420Z,98944.69
2022-08-14T09:43:09.927Z,98939.63
2022-08-14T09:45:53.242Z,98948.09
2022-08-14T09:48:27.662Z,98937.66
2022-08-14T09:54:18.073Z,98922.50
2022-08-14T09:56:32.779Z,98931.72
2022-08-14T09:59:15.022Z,98925.00
2022-08-14T10:01:46.135Z,98912.53
2022-08-14T10:04:33.024Z,98914.75
2022-08-14T10:07:03.372Z,98923.06
2022-08-14T10:09:33.427Z,98920.50
2022-08-14T10:12:05.374Z,98923.13
2022-08-14T10:14:37.180Z,98915.53
2022-08-14T10:17:08.700Z,98920.50
2022-08-14T10:19:48.151Z,98920.19
2022-08-14T10:23:12.678Z,98912.19
2022-08-14T10:25:14.141Z,98921.75
2022-08-14T10:27:46.398Z,98909.56
2022-08-14T10:30:22.823Z,98896.97
2022-08-14T10:32:55.593Z,98915.47
2022-08-14T10:35:31.801Z,98911.56
2022-08-14T10:38:01.804Z,98908.34
2022-08-14T10:40:43.560Z,98908.78
2022-08-14T10:43:22.721Z,98910.22
2022-08-14T10:46:21.826Z,98909.22
2022-08-14T10:48:57.818Z,98907.84
2022-08-14T10:51:27.107Z,98898.44
2022-08-14T10:54:01.879Z,98907.59
2022-08-14T10:56:45.509Z,98892.97
2022-08-14T10:59:14.084Z,98907.59
2022-08-14T11:01:43.780Z,98898.13
2022-08-14T11:04:26.123Z,98902.34
2022-08-14T11:06:57.007Z,98895.56
2022-08-14T11:09:26.345Z,98894.56
2022-08-14T11:12:33.172Z,98893.41
2022-08-14T11:14:59.838Z,98886.34
2022-08-14T11:17:33.136Z,98885.44
2022-08-14T11:20:03.492Z,98881.34
2022-08-14T11:22:52.720Z,98880.69
2022-08-14T11:25:23.707Z,98875.56
2022-08-14T11:27:55.105Z,98866.28
2022-08-14T11:30:51.338Z,98865.00
2022-08-14T11:33:16.370Z,98864.63
2022-08-14T11:35:48.929Z,98865.88
2022-08-14T11:38:21.331Z,98862.75
2022-08-14T11:40:49.456Z,98860.44
2022-08-14T11:43:18.358Z,98862.13
2022-08-14T11:45:52.124Z,98858.31
2022-08-14T11:49:03.230Z,98854.22
2022-08-14T11:51:14.562Z,98834.50
2022-08-14T11:53:45.745Z,98852.69
2022-08-14T11:56:14.001Z,98847.16
2022-08-14T11:58:44.566Z,98850.91
2022-08-14T12:01:13.021Z,98850.38
2022-08-14T12:03:52.081Z,98851.50
2022-08-14T12:06:39.259Z,98845.03
2022-08-14T12:09:08.681Z,98843.56
2022-08-14T12:11:47.615Z,98844.63
2022-08-14T12:14:30.981Z,98839.25
2022-08-14T12:17:12.822Z,98825.47
2022-08-14T12:19:50.907Z,98827.97
2022-08-14T12:22:30.439Z,98830.38
2022-08-14T12:24:58.584Z,98828.41
2022-08-14T12:27:41.647Z,98824.91
2022-08-14T12:30:21.011Z,98818.09
2022-08-14T12:32:49.264Z,98819.28
2022-08-14T12:35:20.299Z,98815.56
2022-08-14T12:37:50.594Z,98821.09
2022-08-14T12:40:24.329Z,98814.38
2022-08-14T12:42:56.727Z,98812.44
2022-08-14T12:45:33.476Z,98809.50
2022-08-14T12:48:21.337Z,98811.66
2022-08-14T12:50:53.143Z,98800.97
2022-08-14T12:53:22.326Z,98813.22
2022-08-14T12:56:21.716Z,98815.09
2022-08-14T12:58:52.421Z,98805.72
2022-08-14T13:01:22.550Z,98809.44
2022-08-14T13:03:52.661Z,98810.19
2022-08-14T13:06:23.183Z,98807.59
2022-08-14T13:08:53.621Z,98799.44
2022-08-14T13:11:36.420Z,98797.19
2022-08-14T13:14:17.628Z,98790.03
2022-08-14T13:16:50.373Z,98786.50
2022-08-14T13:19:21.126Z,98787.53
2022-08-14T13:22:04.808Z,98786.94
2022-08-14T13:24:35.705Z,98782.50
2022-08-14T13:27:05.090Z,98775.34
2022-08-14T13:29:43.953Z,98779.56
2022-08-14T13:32:15.308Z,98779.50
2022-08-14T13:34:46.097Z,98769.88
2022-08-14T13:37:17.218Z,98769.47
2022-08-14T13:39:56.271Z,98756.38
2022-08-14T13:42:30.304Z,98760.59
2022-08-14T13:45:01.106Z,98750.31
2022-08-14T13:47:30.871Z,98748.41
2022-08-14T13:50:02.902Z,98748.66
2022-08-14T13:52:52.829Z,98748.47
2022-08-14T13:55:23.970Z,98742.09
2022-08-14T13:58:03.402Z,98735.75
2022-08-14T14:00:51.745Z,98730.41
2022-08-14T14:03:23.294Z,98746.63
2022-08-14T14:05:54.249Z,98734.38
2022-08-14T14:08:46.303Z,98735.63
2022-08-14T14:11:15.992Z,98729.81
2022-08-14T14:13:45.276Z,98721.13
2022-08-14T14:16:15.270Z,98725.06
2022-08-14T14:18:52.059Z,98725.75
2022-08-14T14:21:21.717Z,98711.16
2022-08-14T14:23:51.695Z,98716.06
2022-08-14T14:26:23.946Z,98707.72
2022-08-14T14:28:56.398Z,98715.00
2022-08-14T14:31:30.062Z,98707.31
2022-08-14T14:34:01.137Z,98696.13
2022-08-14T14:36:36.613Z,98706.63
2022-08-14T14:39:08.056Z,98704.81
2022-08-14T14:41:43.681Z,98704.50
2022-08-14T14:44:15.922Z,98703.75
2022-08-14T14:46:50.697Z,98709.34
2022-08-14T14:49:21.522Z,98700.66
2022-08-14T14:51:51.326Z,98707.06
2022-08-14T14:54:31.413Z,98706.44
2022-08-14T14:57:02.532Z,98710.66
2022-08-14T14:59:33.401Z,98715.69
2022-08-14T15:02:07.731Z,98709.97
2022-08-14T15:04:38.115Z,98697.78
2022-08-14T15:07:07.516Z,98704.31
2022-08-14T15:09:36.933Z,98711.75
2022-08-14T15:12:16.285Z,98702.72
2022-08-14T15:14:56.259Z,98702.06
2022-08-14T15:17:28.667Z,98690.31
2022-08-14T15:20:05.309Z,98698.78
2022-08-14T15:22:34.875Z,98705.59
2022-08-14T15:25:04.364Z,98701.50
2022-08-14T15:27:32.668Z,98694.84
2022-08-14T15:30:00.638Z,98696.75
2022-08-14T15:32:29.234Z,98693.25
2022-08-14T15:34:58.125Z,98701.22
2022-08-14T15:37:26.015Z,98697.78
2022-08-14T15:40:02.019Z,98693.75
2022-08-14T15:42:32.491Z,98707.03
2022-08-14T15:45:01.643Z,98698.00
2022-08-14T15:47:35.327Z,98703.41
2022-08-14T15:50:09.971Z,98693.38
2022-08-14T15:52:38.693Z,98694.22
2022-08-14T15:55:10.060Z,98694.34
2022-08-14T15:57:51.727Z,98695.88
2022-08-14T16:00:49.595Z,98700.09
2022-08-14T16:03:27.449Z,98702.88
2022-08-14T16:06:04.616Z,98701.31
2022-08-14T16:08:33.841Z,98704.03
2022-08-14T16:11:05.098Z,98695.25
2022-08-14T16:13:42.980Z,98700.41
2022-08-14T16:16:34.954Z,98685.00
2022-08-14T16:22:57.009Z,98685.78
2022-08-14T16:24:59.755Z,98690.34
2022-08-14T16:27:38.929Z,98692.31
2022-08-14T16:30:24.519Z,98684.31
2022-08-14T16:32:57.211Z,98698.06
2022-08-14T16:35:41.827Z,98682.38
2022-08-14T16:38:19.851Z,98672.16
2022-08-14T16:40:23.772Z,98693.22
2022-08-14T16:41:22.235Z,98682.19
2022-08-14T16:43:54.024Z,98677.06
2022-08-14T16:46:32.507Z,98667.88
2022-08-14T16:49:01.605Z,98672.22
2022-08-14T16:51:31.053Z,98674.34
2022-08-14T16:54:20.939Z,98674.34
2022-08-14T16:56:54.598Z,98669.63
2022-08-14T16:59:30.312Z,98667.78
2022-08-14T17:02:14.724Z,98670.56
2022-08-14T17:04:49.256Z,98672.69
2022-08-14T17:07:17.593Z,98666.69
2022-08-14T17:09:48.715Z,98669.63
2022-08-14T17:12:33.999Z,98672.00
2022-08-14T17:15:10.630Z,98673.75
2022-08-14T17:17:50.076Z,98663.97
2022-08-14T17:20:54.747Z,98677.41
2022-08-14T17:23:15.167Z,98684.63
2022-08-14T17:25:51.078Z,98691.50
2022-08-14T17:28:52.245Z,98681.75
2022-08-14T17:31:09.242Z,98686.72
2022-08-14T17:33:40.961Z,98687.84
2022-08-14T17:36:21.321Z,98688.59
2022-08-14T17:39:06.439Z,98689.53
2022-08-14T17:41:43.814Z,98685.84
2022-08-14T17:44:20.217Z,98675.50
2022-08-14T17:46:55.339Z,98690.91
2022-08-14T17:49:32.254Z,98699.72
2022-08-14T17:52:03.717Z,98699.03
2022-08-14T17:54:39.203Z,98700.91
2022-08-14T17:57:14.397Z,98695.81
2022-08-14T17:59:43.713Z,98702.47
2022-08-14T18:02:16.801Z,98701.53
2022-08-14T18:04:47.406Z,98698.09
2022-08-14T18:07:59.551Z,98707.25
2022-08-14T18:10:52.519Z,98702.84
2022-08-14T18:12:59.099Z,98718.00
2022-08-14T18:15:35.415Z,98730.47
2022-08-14T18:18:09.012Z,98730.53
2022-08-14T18:21:40.371Z,98732.91
2022-08-14T18:23:28.454Z,98741.53
2022-08-14T18:25:59.057Z,98746.16
2022-08-14T18:28:47.816Z,98747.16
2022-08-14T18:31:42.345Z,98754.47
2022-08-14T18:34:32.424Z,98747.84
2022-08-14T18:37:17.446Z,98745.38
2022-08-14T18:40:01.459Z,98750.38
2022-08-14T18:42:44.614Z,98749.38
2022-08-14T18:45:18.624Z,98744.59
2022-08-14T18:48:14.739Z,98739.63
2022-08-14T18:50:49.062Z,98728.88
2022-08-14T18:53:24.410Z,98734.75
2022-08-14T18:55:59.965Z,98740.09
2022-08-14T18:58:34.152Z,98742.09
2022-08-14T19:01:09.020Z,98737.22
2022-08-14T19:03:56.117Z,98740.19
2022-08-14T19:06:40.554Z,98732.00
2022-08-14T19:09:29.997Z,98727.88
2022-08-14T19:11:58.000Z,98725.38
2022-08-14T19:14:48.258Z,98720.91
2022-08-14T19:17:42.751Z,98720.09
2022-08-14T19:20:12.804Z,98714.31
2022-08-14T19:22:42.783Z,98710.31
2022-08-14T19:25:48.523Z,98711.38
2022-08-14T19:28:31.516Z,98718.34
2022-08-14T19:31:42.680Z,98718.44
2022-08-14T19:34:37.639Z,98714.47
2022-08-14T19:37:10.236Z,98710.63
2022-08-14T19:39:53.803Z,98712.00
2022-08-14T19:42:28.590Z,98715.69
2022-08-14T19:44:59.179Z,98711.75
2022-08-14T19:47:47.537Z,98708.91
2022-08-14T19:50:38.207Z,98715.41
2022-08-14T19:53:16.440Z,98713.91
2022-08-14T19:55:59.173Z,98720.00
2022-08-14T19:58:55.049Z,98707.28
2022-08-14T20:01:37.041Z,98704.09
2022-08-14T20:04:22.829Z,98707.19
2022-08-14T20:07:00.113Z,98715.38
2022-08-14T20:11:11.614Z,98719.88
2022-08-14T20:12:34.898Z,98714.38
2022-08-14T20:15:11.512Z,98716.31
2022-08-14T20:17:53.045Z,98716.31
2022-08-14T20:20:31.925Z,98723.09
2022-08-14T20:23:02.436Z,98720.53
2022-08-14T20:25:45.679Z,98725.66
2022-08-14T20:28:31.907Z,98717.06
2022-08-14T20:31:15.721Z,98726.41
2022-08-14T20:34:06.190Z,98728.44
2022-08-14T20:36:38.778Z,98729.50
2022-08-14T20:39:10.100Z,98735.88
2022-08-14T20:41:51.291Z,98734.81
2022-08-14T20:44:38.684Z,98732.78
2022-08-14T20:47:08.216Z,98733.00
2022-08-14T20:49:37.246Z,98742.47
2022-08-14T20:52:18.984Z,98742.63
2022-08-14T20:54:51.381Z,98734.19
2022-08-14T20:57:22.613Z,98728.28
2022-08-14T20:59:57.158Z,98733.41
2022-08-14T21:02:50.071Z,98721.06
2022-08-14T21:05:22.434Z,98730.56
2022-08-14T21:08:09.995Z,98711.03
2022-08-14T21:10:51.449Z,98720.94
2022-08-14T21:13:27.772Z,98732.25
2022-08-14T21:16:34.238Z,98728.94
2022-08-14T21:19:01.889Z,98717.34
2022-08-14T21:21:41.168Z,98727.09
2022-08-14T21:24:38.553Z,98734.63
2022-08-14T21:27:09.423Z,98736.34
2022-08-14T21:29:49.855Z,98736.53
2022-08-14T21:32:33.824Z,98735.09
2022-08-14T21:35:08.342Z,98731.16
2022-08-14T21:37:46.018Z,98743.13
2022-08-14T21:40:40.869Z,98735.50
2022-08-14T21:43:07.349Z,98738.91
2022-08-14T21:45:53.300Z,98744.13
2022-08-14T21:48:25.199Z,98743.09
2022-08-14T21:51:01.992Z,98743.50
2022-08-14T21:53:59.122Z,98741.56
2022-08-14T21:56:38.435Z,98755.38
2022-08-14T21:59:18.305Z,98752.09
2022-08-14T22:02:00.490Z,98754.13
2022-08-14T22:04:40.746Z,98751.34
2022-08-14T22:07:16.743Z,98743.09
2022-08-14T22:09:55.184Z,98745.56
2022-08-14T22:12:57.280Z,98754.72
2022-08-14T22:15:14.709Z,98755.78
2022-08-14T22:17:44.277Z,98766.50
2022-08-14T22:20:16.465Z,98768.66
2022-08-14T22:22:46.426Z,98760.78
2022-08-14T22:25:17.271Z,98763.03
2022-08-14T22:27:56.320Z,98755.81
2022-08-14T22:30:26.475Z,98758.72
2022-08-14T22:32:56.664Z,98750.81
2022-08-14T22:35:26.701Z,98750.56
2022-08-14T22:38:34.935Z,98745.81
2022-08-14T22:41:03.976Z,98746.28
2022-08-14T22:43:35.095Z,98739.13
2022-08-14T22:46:06.175Z,98739.06
2022-08-14T22:48:44.430Z,98739.47
2022-08-14T22:51:13.408Z,98731.56
2022-08-14T22:53:44.879Z,98733.00
2022-08-14T22:56:20.819Z,98731.03
2022-08-14T22:58:54.328Z,98738.28
2022-08-14T23:01:55.097Z,98731.81
2022-08-14T23:04:35.332Z,98740.53
2022-08-14T23:07:14.718Z,98737.41
2022-08-14T23:09:56.740Z,98733.59
2022-08-14T23:12:31.473Z,98729.88
2022-08-14T23:15:00.586Z,98736.59
2022-08-14T23:17:39.493Z,98741.25
2022-08-14T23:20:18.922Z,98740.16
2022-08-14T23:22:52.305Z,98746.53
2022-08-14T23:25:44.641Z,98742.97
2022-08-14T23:28:34.217Z,98746.28
2022-08-14T23:31:08.400Z,98752.22
2022-08-14T23:33:45.721Z,98748.19
2022-08-14T23:36:32.164Z,98749.84
2022-08-14T23:39:07.305Z,98754.06
2022-08-14T23:41:46.383Z,98744.25
2022-08-14T23:44:21.788Z,98747.03
2022-08-14T23:46:57.146Z,98741.91
2022-08-14T23:49:57.054Z,98734.81
2022-08-14T23:53:07.311Z,98749.75
2022-08-14T23:55:11.456Z,98746.25
2022-08-14T23:57:44.257Z,98734.75
